createdAt,value
2022-09-15T00:01:32.241Z,5.70
2022-09-15T00:04:34.242Z,5.40
2022-09-15T00:10:39.262Z,6.90
2022-09-15T00:13:41.665Z,4.95
2022-09-15T00:16:43.637Z,5.47
2022-09-15T00:19:45.660Z,5.85
2022-09-15T00:22:48.708Z,4.75
2022-09-15T00:25:52.724Z,4.78
2022-09-15T00:28:55.860Z,5.22
2022-09-15T00:31:57.681Z,4.32
2022-09-15T00:34:59.638Z,3.63
2022-09-15T00:38:01.563Z,4.95
2022-09-15T00:41:05.197Z,5.80
2022-09-15T00:44:36.219Z,5.10
2022-09-15T00:47:40.058Z,4.32
2022-09-15T00:50:45.459Z,4.32
2022-09-15T00:53:48.514Z,4.25
2022-09-15T00:56:53.628Z,3.67
2022-09-15T00:59:59.551Z,4.00
2022-09-15T01:03:02.364Z,6.13
2022-09-15T01:06:23.175Z,5.60
2022-09-15T01:09:28.274Z,3.30
2022-09-15T01:12:30.647Z,4.30
2022-09-15T01:15:57.088Z,6.55
2022-09-15T01:19:28.831Z,3.20
2022-09-15T01:22:45.866Z,4.55
2022-09-15T01:26:08.932Z,3.95
2022-09-15T01:29:48.636Z,4.78
2022-09-15T01:33:14.758Z,4.30
2022-09-15T01:36:25.229Z,4.45
2022-09-15T01:39:36.422Z,3.88
2022-09-15T01:42:39.944Z,3.67
2022-09-15T01:45:43.868Z,3.33
2022-09-15T01:48:48.684Z,5.43
2022-09-15T01:51:53.149Z,4.63
2022-09-15T01:55:05.594Z,5.20
2022-09-15T01:58:08.638Z,4.95
2022-09-15T02:01:14.479Z,3.30
2022-09-15T02:04:24.342Z,4.32
2022-09-15T02:07:36.684Z,3.45
2022-09-15T02:10:46.721Z,7.55
2022-09-15T02:14:24.062Z,5.20
2022-09-15T02:17:29.637Z,4.22
2022-09-15T02:20:37.617Z,4.32
2022-09-15T02:23:45.466Z,6.38
2022-09-15T02:26:49.890Z,6.85
2022-09-15T02:29:55.035Z,6.35
2022-09-15T02:36:15.003Z,6.85
2022-09-15T02:39:20.320Z,4.05
2022-09-15T02:42:24.611Z,4.90
2022-09-15T02:45:27.097Z,6.72
2022-09-15T02:48:29.515Z,6.20
2022-09-15T02:54:33.281Z,6.88
2022-09-15T02:57:35.469Z,6.03
2022-09-15T03:00:37.442Z,5.10
2022-09-15T03:03:42.876Z,4.47
2022-09-15T03:06:45.163Z,6.03
2022-09-15T03:12:52.587Z,5.15
2022-09-15T03:15:54.630Z,5.20
2022-09-15T03:22:06.724Z,5.38
2022-09-15T03:25:09.163Z,4.20
2022-09-15T03:28:11.200Z,7.72
2022-09-15T03:34:14.972Z,7.30
2022-09-15T03:37:20.629Z,6.72
2022-09-15T03:40:22.551Z,6.32
2022-09-15T03:43:24.688Z,8.52
2022-09-15T03:49:28.727Z,5.82
2022-09-15T03:52:31.716Z,4.93
2022-09-15T03:55:33.693Z,5.38
2022-09-15T03:58:35.959Z,4.18
2022-09-15T04:01:38.714Z,6.97
2022-09-15T04:04:40.714Z,6.15
2022-09-15T04:07:42.573Z,4.57
2022-09-15T04:10:44.705Z,5.60
2022-09-15T04:16:48.664Z,6.00
2022-09-15T04:19:50.801Z,7.28
2022-09-15T04:25:57.182Z,4.40
2022-09-15T04:29:04.276Z,5.82
2022-09-15T04:35:10.170Z,5.80
2022-09-15T04:38:12.741Z,7.28
2022-09-15T04:41:15.295Z,6.53
2022-09-15T04:44:17.549Z,4.30
2022-09-15T04:47:19.472Z,4.90
2022-09-15T04:50:21.315Z,5.20
2022-09-15T04:53:23.204Z,7.03
2022-09-15T04:56:26.094Z,5.10
2022-09-15T04:59:28.313Z,8.02
2022-09-15T05:02:33.817Z,6.18
2022-09-15T05:05:43.404Z,5.10
2022-09-15T05:08:51.773Z,9.02
2022-09-15T05:11:54.548Z,4.38
2022-09-15T05:18:13.669Z,6.30
2022-09-15T05:21:21.090Z,4.75
2022-09-15T05:33:00.386Z,5.80
2022-09-15T05:36:04.379Z,5.82
2022-09-15T05:39:08.145Z,6.28
2022-09-15T05:42:10.928Z,5.03
2022-09-15T05:45:13.208Z,6.65
2022-09-15T05:48:15.343Z,6.80
2022-09-15T05:51:17.263Z,6.00
2022-09-15T05:54:19.246Z,5.93
2022-09-15T05:57:21.157Z,4.45
2022-09-15T06:03:39.867Z,11.00
2022-09-15T06:09:43.593Z,8.18
2022-09-15T06:12:46.445Z,7.13
2022-09-15T06:15:48.489Z,5.95
2022-09-15T06:18:52.139Z,6.80
2022-09-15T06:21:54.406Z,5.10
2022-09-15T06:28:00.753Z,6.68
2022-09-15T06:31:02.930Z,6.72
2022-09-15T06:34:04.945Z,5.07
2022-09-15T06:40:09.915Z,10.85
2022-09-15T06:43:11.947Z,4.82
2022-09-15T06:49:18.247Z,5.13
2022-09-15T06:52:20.160Z,6.07
2022-09-15T06:55:22.218Z,5.07
2022-09-15T07:01:30.393Z,5.15
2022-09-15T07:04:34.134Z,6.60
2022-09-15T07:07:36.290Z,6.68
2022-09-15T07:10:38.280Z,7.15
2022-09-15T07:13:41.086Z,9.65
2022-09-15T07:16:43.041Z,10.80
2022-09-15T07:19:44.911Z,14.48
2022-09-15T07:22:46.846Z,10.95
2022-09-15T07:25:48.657Z,13.68
2022-09-15T07:29:06.036Z,15.75
2022-09-15T07:32:08.146Z,12.77
2022-09-15T07:38:12.341Z,11.85
2022-09-15T07:41:17.792Z,11.38
2022-09-15T07:44:19.668Z,13.20
2022-09-15T07:47:21.547Z,11.40
2022-09-15T07:50:23.679Z,10.55
2022-09-15T07:56:31.878Z,10.98
2022-09-15T07:59:35.560Z,10.70
2022-09-15T08:02:40.366Z,10.50
2022-09-15T08:05:45.545Z,9.95
2022-09-15T08:08:48.723Z,11.32
2022-09-15T08:11:51.132Z,10.85
2022-09-15T08:14:53.131Z,10.52
2022-09-15T08:17:55.038Z,10.30
2022-09-15T08:20:57.160Z,11.35
2022-09-15T08:23:59.991Z,11.85
2022-09-15T08:27:02.017Z,10.05
2022-09-15T08:30:06.323Z,11.35
2022-09-15T08:33:08.305Z,12.02
2022-09-15T08:36:11.283Z,11.95
2022-09-15T08:39:13.309Z,11.73
2022-09-15T08:42:18.193Z,11.95
2022-09-15T08:45:36.610Z,11.98
2022-09-15T08:48:48.209Z,12.63
2022-09-15T08:51:52.097Z,10.02
2022-09-15T08:54:58.712Z,7.90
2022-09-15T08:58:01.566Z,11.10
2022-09-15T09:01:16.667Z,8.93
2022-09-15T09:04:41.538Z,8.88
2022-09-15T09:07:43.444Z,9.82
2022-09-15T09:11:02.304Z,10.07
2022-09-15T09:14:36.736Z,9.45
2022-09-15T09:18:08.290Z,9.82
2022-09-15T09:21:12.977Z,10.20
2022-09-15T09:24:16.667Z,9.65
2022-09-15T09:27:24.612Z,11.13
2022-09-15T09:30:30.756Z,10.45
2022-09-15T09:33:48.148Z,9.35
2022-09-15T09:36:58.704Z,10.43
2022-09-15T09:40:01.345Z,7.57
2022-09-15T09:43:03.511Z,8.18
2022-09-15T09:46:17.442Z,8.60
2022-09-15T09:49:23.393Z,7.85
2022-09-15T09:52:36.616Z,9.20
2022-09-15T09:55:38.453Z,9.88
2022-09-15T09:58:40.237Z,10.38
2022-09-15T10:01:45.021Z,12.10
2022-09-15T10:05:17.139Z,11.15
2022-09-15T10:08:20.962Z,12.27
2022-09-15T10:11:41.936Z,12.07
2022-09-15T10:14:51.120Z,10.07
2022-09-15T10:17:55.779Z,10.52
2022-09-15T10:20:58.246Z,10.02
2022-09-15T10:24:32.066Z,11.73
2022-09-15T10:27:36.542Z,9.07
2022-09-15T10:30:39.492Z,10.63
2022-09-15T10:33:43.331Z,10.23
2022-09-15T10:36:46.754Z,11.43
2022-09-15T10:39:54.088Z,13.43
2022-09-15T10:43:12.385Z,13.15
2022-09-15T10:46:21.932Z,12.60
2022-09-15T10:50:01.644Z,12.57
2022-09-15T11:03:36.137Z,12.57
2022-09-15T11:07:04.043Z,13.80
2022-09-15T11:10:24.864Z,14.32
2022-09-15T11:13:32.489Z,13.80
2022-09-15T11:17:01.617Z,11.88
2022-09-15T11:20:35.082Z,15.68
2022-09-15T11:23:47.664Z,12.43
2022-09-15T11:27:20.397Z,12.38
2022-09-15T11:30:32.376Z,13.60
2022-09-15T11:33:52.254Z,12.82
2022-09-15T11:37:21.344Z,11.32
2022-09-15T11:40:36.027Z,11.57
2022-09-15T11:43:56.847Z,10.05
2022-09-15T11:47:23.411Z,11.15
2022-09-15T11:50:35.973Z,11.23
2022-09-15T11:53:42.887Z,10.02
2022-09-15T11:56:47.067Z,10.07
2022-09-15T12:00:05.996Z,8.75
2022-09-15T12:03:30.893Z,10.43
2022-09-15T12:06:43.262Z,10.43
2022-09-15T12:09:47.388Z,10.55
2022-09-15T12:12:51.546Z,9.18
2022-09-15T12:15:54.686Z,7.88
2022-09-15T12:19:06.768Z,7.15
2022-09-15T12:22:27.888Z,7.32
2022-09-15T12:25:56.544Z,5.97
2022-09-15T12:29:04.127Z,4.95
2022-09-15T12:32:26.459Z,5.55
2022-09-15T12:35:31.615Z,4.60
2022-09-15T12:38:33.454Z,5.95
2022-09-15T12:41:35.372Z,7.47
2022-09-15T12:44:40.542Z,4.95
2022-09-15T12:47:51.146Z,5.93
2022-09-15T12:50:59.681Z,6.70
2022-09-15T12:54:04.323Z,6.68
2022-09-15T12:57:08.085Z,7.65
2022-09-15T13:00:35.803Z,7.10
2022-09-15T13:07:17.603Z,6.45
2022-09-15T13:10:31.677Z,5.85
2022-09-15T13:17:13.190Z,7.63
2022-09-15T13:20:30.653Z,5.28
2022-09-15T13:23:38.523Z,7.70
2022-09-15T13:26:44.129Z,5.38
2022-09-15T13:30:13.895Z,8.07
2022-09-15T13:41:27.010Z,4.72
2022-09-15T13:45:05.368Z,5.72
2022-09-15T13:48:45.513Z,5.10
2022-09-15T13:51:59.905Z,4.95
2022-09-15T13:55:18.487Z,7.88
2022-09-15T14:01:46.408Z,4.50
2022-09-15T14:04:50.492Z,5.85
2022-09-15T14:11:13.292Z,6.10
2022-09-15T14:14:51.494Z,4.93
2022-09-15T14:17:55.672Z,4.38
2022-09-15T14:20:59.565Z,4.63
2022-09-15T14:24:20.372Z,5.10
2022-09-15T14:27:33.819Z,3.80
2022-09-15T14:30:36.280Z,4.70
2022-09-15T14:33:41.031Z,5.40
2022-09-15T14:36:42.956Z,4.68
2022-09-15T14:39:52.593Z,4.05
2022-09-15T14:42:54.591Z,4.93
2022-09-15T14:46:09.307Z,4.95
2022-09-15T14:49:12.441Z,6.47
2022-09-15T14:52:30.766Z,4.85
2022-09-15T14:55:48.409Z,3.97
2022-09-15T14:58:58.046Z,5.75
2022-09-15T15:02:24.972Z,5.07
2022-09-15T15:05:35.475Z,4.88
2022-09-15T15:08:56.529Z,3.92
2022-09-15T15:12:06.450Z,5.43
2022-09-15T15:15:12.641Z,5.85
2022-09-15T15:18:36.276Z,6.80
2022-09-15T15:21:39.795Z,5.20
2022-09-15T15:24:44.450Z,5.60
2022-09-15T15:27:54.690Z,5.47
2022-09-15T15:31:06.499Z,4.40
2022-09-15T15:34:24.662Z,4.70
2022-09-15T15:37:34.122Z,6.25
2022-09-15T15:40:38.456Z,4.07
2022-09-15T15:43:53.807Z,4.93
2022-09-15T15:47:14.285Z,8.50
2022-09-15T15:50:20.299Z,4.60
2022-09-15T15:53:23.912Z,6.57
2022-09-15T15:56:25.886Z,5.15
2022-09-15T15:59:27.718Z,4.18
2022-09-15T16:02:30.251Z,5.07
2022-09-15T16:05:32.849Z,5.47
2022-09-15T16:08:38.151Z,4.50
2022-09-15T16:11:41.316Z,4.85
2022-09-15T16:14:43.175Z,7.40
2022-09-15T16:17:46.880Z,6.35
2022-09-15T16:20:49.125Z,5.05
2022-09-15T16:23:50.900Z,7.80
2022-09-15T16:26:53.905Z,6.32
2022-09-15T16:29:56.026Z,7.00
2022-09-15T16:36:00.984Z,5.88
2022-09-15T16:39:03.215Z,6.57
2022-09-15T16:42:05.264Z,4.53
2022-09-15T16:48:19.822Z,7.85
2022-09-15T16:51:30.689Z,8.50
2022-09-15T16:54:33.408Z,4.60
2022-09-15T16:57:35.376Z,5.45
2022-09-15T17:03:47.803Z,4.57
2022-09-15T17:06:49.706Z,4.57
2022-09-15T17:09:51.576Z,6.10
2022-09-15T17:12:54.055Z,6.28
2022-09-15T17:15:56.069Z,5.75
2022-09-15T17:21:59.770Z,6.63
2022-09-15T17:25:01.602Z,5.97
2022-09-15T17:28:03.483Z,6.20
2022-09-15T17:31:12.235Z,6.78
2022-09-15T17:34:16.861Z,4.63
2022-09-15T17:37:18.710Z,5.35
2022-09-15T17:40:21.775Z,5.80
2022-09-15T17:43:28.051Z,5.40
2022-09-15T17:46:29.938Z,5.63
2022-09-15T17:49:31.908Z,5.75
2022-09-15T17:52:33.820Z,6.50
2022-09-15T17:55:36.357Z,5.97
2022-09-15T17:58:38.262Z,4.53
2022-09-15T18:01:40.200Z,5.25
2022-09-15T18:04:42.132Z,4.45
2022-09-15T18:07:44.046Z,5.15
2022-09-15T18:10:48.614Z,7.05
2022-09-15T18:13:50.477Z,5.72
2022-09-15T18:16:52.345Z,7.85
2022-09-15T18:19:54.164Z,6.28
2022-09-15T18:22:56.509Z,4.68
2022-09-15T18:25:58.429Z,5.95
2022-09-15T18:29:00.481Z,7.88
2022-09-15T18:32:02.516Z,6.65
2022-09-15T18:35:04.621Z,6.47
2022-09-15T18:38:07.224Z,6.95
2022-09-15T18:41:10.939Z,5.72
2022-09-15T18:44:12.966Z,6.35
2022-09-15T18:47:15.096Z,6.47
2022-09-15T18:53:20.175Z,6.13
2022-09-15T18:56:22.097Z,6.00
2022-09-15T18:59:24.064Z,5.82
2022-09-15T19:02:26.214Z,6.57
2022-09-15T19:08:30.383Z,4.70
2022-09-15T19:11:32.244Z,6.80
2022-09-15T19:14:34.154Z,6.40
2022-09-15T19:17:36.513Z,8.43
2022-09-15T19:20:38.539Z,7.35
2022-09-15T19:23:40.420Z,8.77
2022-09-15T19:26:45.720Z,8.27
2022-09-15T19:29:47.702Z,8.57
2022-09-15T19:32:49.739Z,6.95
2022-09-15T19:36:04.902Z,7.95
2022-09-15T19:39:14.340Z,8.20
2022-09-15T19:42:16.378Z,8.00
2022-09-15T19:45:18.328Z,7.35
2022-09-15T19:48:20.369Z,6.57
2022-09-15T19:51:22.752Z,5.70
2022-09-15T19:54:26.888Z,7.53
2022-09-15T19:57:28.755Z,7.18
2022-09-15T20:00:30.671Z,7.15
2022-09-15T20:03:32.562Z,4.78
2022-09-15T20:06:35.352Z,8.38
2022-09-15T20:09:37.215Z,10.00
2022-09-15T20:12:39.203Z,7.25
2022-09-15T20:15:41.612Z,8.23
2022-09-15T20:18:47.664Z,9.10
2022-09-15T20:21:51.046Z,8.52
2022-09-15T20:24:53.514Z,8.18
2022-09-15T20:27:55.396Z,8.10
2022-09-15T20:31:13.910Z,5.90
2022-09-15T20:34:15.851Z,6.38
2022-09-15T20:37:17.719Z,6.00
2022-09-15T20:40:19.748Z,6.25
2022-09-15T20:43:22.577Z,7.32
2022-09-15T20:46:24.450Z,6.88
2022-09-15T20:49:26.440Z,5.28
2022-09-15T20:52:33.634Z,6.65
2022-09-15T20:55:39.533Z,6.03
2022-09-15T20:58:42.333Z,7.95
2022-09-15T21:01:44.315Z,7.43
2022-09-15T21:04:46.316Z,6.65
2022-09-15T21:07:48.497Z,5.85
2022-09-15T21:13:52.611Z,8.60
2022-09-15T21:19:56.464Z,7.55
2022-09-15T21:22:58.368Z,6.28
2022-09-15T21:26:06.133Z,6.40
2022-09-15T21:29:08.638Z,10.15
2022-09-15T21:32:10.598Z,6.35
2022-09-15T21:35:12.608Z,6.20
2022-09-15T21:38:15.334Z,6.85
2022-09-15T21:41:19.180Z,8.13
2022-09-15T21:44:21.027Z,6.95
2022-09-15T21:47:22.941Z,6.65
2022-09-15T21:50:24.768Z,9.02
2022-09-15T21:53:28.614Z,11.60
2022-09-15T21:56:31.074Z,9.25
2022-09-15T21:59:33.206Z,6.55
2022-09-15T22:02:35.739Z,7.53
2022-09-15T22:05:42.413Z,7.43
2022-09-15T22:08:45.645Z,6.72
2022-09-15T22:11:48.687Z,10.80
2022-09-15T22:14:50.816Z,8.27
2022-09-15T22:21:05.303Z,8.80
2022-09-15T22:24:10.232Z,8.38
2022-09-15T22:27:12.671Z,7.43
2022-09-15T22:33:20.482Z,8.98
2022-09-15T22:36:30.775Z,8.30
2022-09-15T22:39:50.548Z,7.10
2022-09-15T22:43:03.388Z,7.68
2022-09-15T22:46:07.672Z,7.45
2022-09-15T22:49:11.434Z,9.18
2022-09-15T22:52:14.093Z,9.98
2022-09-15T22:55:16.481Z,10.00
2022-09-15T22:58:19.229Z,6.95
2022-09-15T23:01:23.453Z,5.47
2022-09-15T23:04:26.074Z,9.68
2022-09-15T23:07:28.308Z,7.47
2022-09-15T23:10:31.131Z,7.05
2022-09-15T23:13:33.659Z,7.75
2022-09-15T23:16:36.430Z,8.13
2022-09-15T23:19:38.879Z,6.22
2022-09-15T23:25:43.723Z,8.73
2022-09-15T23:28:46.107Z,7.95
2022-09-15T23:31:48.529Z,7.53
2022-09-15T23:34:50.882Z,8.15
2022-09-15T23:37:53.317Z,9.77
2022-09-15T23:40:55.458Z,6.20
2022-09-15T23:47:00.644Z,9.18
2022-09-15T23:50:02.961Z,9.43
2022-09-15T23:56:08.385Z,6.28
2022-09-15T23:59:10.717Z,9.57
